createdAt,value
2019-06-07T00:00:51.024Z,0.00
2019-06-07T00:01:50.948Z,0.00
2019-06-07T00:02:50.873Z,0.00
2019-06-07T00:03:50.796Z,0.00
2019-06-07T00:04:50.716Z,0.00
2019-06-07T00:05:50.642Z,0.00
2019-06-07T00:06:50.558Z,0.00
2019-06-07T00:07:50.489Z,0.00
2019-06-07T00:08:50.413Z,0.00
2019-06-07T00:09:50.332Z,0.00
2019-06-07T00:10:50.261Z,0.00
2019-06-07T00:11:50.184Z,0.00
2019-06-07T00:12:50.103Z,0.00
2019-06-07T00:13:50.020Z,0.00
2019-06-07T00:14:49.957Z,0.00
2019-06-07T00:15:49.873Z,0.00
2019-06-07T00:16:49.795Z,0.00
2019-06-07T00:17:49.994Z,0.00
2019-06-07T00:18:49.644Z,0.00
2019-06-07T00:19:49.575Z,0.00
2019-06-07T00:20:49.479Z,0.00
2019-06-07T00:22:49.330Z,0.00
2019-06-07T00:23:49.256Z,0.00
2019-06-07T00:24:49.215Z,0.00
2019-06-07T00:25:49.095Z,0.00
2019-06-07T00:26:58.329Z,0.00
2019-06-07T00:27:48.949Z,0.00
2019-06-07T00:28:48.872Z,0.00
2019-06-07T00:29:48.852Z,0.00
2019-06-07T00:30:52.219Z,0.00
2019-06-07T00:31:48.635Z,0.00
2019-06-07T00:32:48.555Z,0.00
2019-06-07T00:33:48.480Z,0.00
2019-06-07T00:34:48.401Z,0.00
2019-06-07T00:35:48.324Z,0.00
2019-06-07T00:36:48.403Z,0.00
2019-06-07T00:37:48.170Z,0.00
2019-06-07T00:38:48.089Z,0.00
2019-06-07T00:40:12.694Z,0.00
2019-06-07T00:40:47.933Z,0.00
2019-06-07T00:41:47.865Z,0.00
2019-06-07T00:42:47.778Z,0.00
2019-06-07T00:43:47.706Z,0.00
2019-06-07T00:44:47.627Z,0.00
2019-06-07T00:45:47.549Z,0.00
2019-06-07T00:46:47.466Z,0.00
2019-06-07T00:47:47.396Z,0.00
2019-06-07T00:48:47.315Z,0.00
2019-06-07T00:49:47.237Z,0.00
2019-06-07T00:50:47.159Z,0.00
2019-06-07T00:51:50.312Z,0.00
2019-06-07T00:53:46.927Z,0.00
2019-06-07T00:54:46.865Z,0.00
2019-06-07T00:55:46.771Z,0.00
2019-06-07T00:56:46.692Z,0.00
2019-06-07T00:57:46.614Z,0.00
2019-06-07T00:58:46.538Z,0.00
2019-06-07T00:59:46.459Z,0.00
2019-06-07T01:00:46.380Z,0.00
2019-06-07T01:01:46.303Z,0.00
2019-06-07T01:02:46.228Z,0.00
2019-06-07T01:03:46.157Z,0.00
2019-06-07T01:04:46.072Z,0.00
2019-06-07T01:05:45.996Z,0.00
2019-06-07T01:06:45.912Z,0.00
2019-06-07T01:07:45.839Z,0.00
2019-06-07T01:08:45.762Z,0.00
2019-06-07T01:09:45.681Z,0.00
2019-06-07T01:10:53.482Z,0.00
2019-06-07T01:11:45.525Z,0.00
2019-06-07T01:12:45.445Z,0.00
2019-06-07T01:13:45.373Z,0.00
2019-06-07T01:14:45.289Z,0.00
2019-06-07T01:15:45.222Z,0.00
2019-06-07T01:16:57.597Z,0.00
2019-06-07T01:18:32.534Z,0.00
2019-06-07T01:18:46.874Z,0.00
2019-06-07T01:19:44.901Z,0.00
2019-06-07T01:20:44.825Z,0.00
2019-06-07T01:21:44.748Z,0.00
2019-06-07T01:22:44.675Z,0.00
2019-06-07T01:24:08.774Z,0.00
2019-06-07T01:24:44.513Z,0.00
2019-06-07T01:25:44.435Z,0.00
2019-06-07T01:26:45.583Z,0.00
2019-06-07T01:27:44.278Z,0.00
2019-06-07T01:28:44.204Z,0.00
2019-06-07T01:29:44.124Z,0.00
2019-06-07T01:30:44.043Z,0.00
2019-06-07T01:31:44.256Z,0.00
2019-06-07T01:32:43.894Z,0.00
2019-06-07T01:33:51.011Z,0.00
2019-06-07T01:34:43.735Z,0.00
2019-06-07T01:35:43.653Z,0.00
2019-06-07T01:36:43.603Z,0.00
2019-06-07T01:37:43.500Z,0.00
2019-06-07T01:38:43.425Z,0.00
2019-06-07T01:39:43.339Z,0.00
2019-06-07T01:40:43.266Z,0.00
2019-06-07T01:41:43.190Z,0.00
2019-06-07T01:42:43.104Z,0.00
2019-06-07T01:43:43.029Z,0.00
2019-06-07T01:44:42.953Z,0.00
2019-06-07T01:45:42.877Z,0.00
2019-06-07T01:46:42.797Z,0.00
2019-06-07T01:47:42.755Z,0.00
2019-06-07T01:48:49.579Z,0.00
2019-06-07T01:49:42.563Z,0.00
2019-06-07T01:50:42.479Z,0.00
2019-06-07T01:51:42.407Z,0.00
2019-06-07T01:54:49.644Z,0.00
2019-06-07T01:55:13.772Z,0.00
2019-06-07T01:56:13.702Z,0.00
2019-06-07T01:57:30.950Z,0.00
2019-06-07T01:58:13.537Z,0.00
2019-06-07T01:59:13.462Z,0.00
2019-06-07T02:00:14.463Z,0.00
2019-06-07T02:01:13.308Z,0.00
2019-06-07T02:02:13.228Z,0.00
2019-06-07T02:03:13.149Z,0.00
2019-06-07T02:04:13.070Z,0.00
2019-06-07T02:05:12.987Z,0.00
2019-06-07T02:06:12.926Z,0.00
2019-06-07T02:07:12.835Z,0.00
2019-06-07T02:08:12.760Z,0.00
2019-06-07T02:09:12.707Z,0.00
2019-06-07T02:10:12.610Z,0.00
2019-06-07T02:11:12.529Z,0.00
2019-06-07T02:12:25.548Z,0.00
2019-06-07T02:13:12.371Z,0.00
2019-06-07T02:14:12.286Z,0.00
2019-06-07T02:15:12.219Z,0.00
2019-06-07T02:16:12.139Z,0.00
2019-06-07T02:17:12.060Z,0.00
2019-06-07T02:18:11.982Z,0.00
2019-06-07T02:19:11.907Z,0.00
2019-06-07T02:20:11.828Z,0.00
2019-06-07T02:21:11.750Z,0.00
2019-06-07T02:22:11.671Z,0.00
2019-06-07T02:23:11.591Z,0.00
2019-06-07T02:24:11.516Z,0.00
2019-06-07T02:26:11.358Z,0.00
2019-06-07T02:27:11.281Z,0.00
2019-06-07T02:28:27.539Z,0.00
2019-06-07T02:29:11.126Z,0.00
2019-06-07T02:30:36.801Z,0.00
2019-06-07T02:31:10.969Z,0.00
2019-06-07T02:32:10.890Z,0.00
2019-06-07T02:33:10.818Z,0.00
2019-06-07T02:34:10.733Z,0.00
2019-06-07T02:35:10.656Z,0.00
2019-06-07T02:36:10.590Z,0.00
2019-06-07T02:37:10.498Z,0.00
2019-06-07T02:38:10.425Z,0.00
2019-06-07T02:39:10.346Z,0.00
2019-06-07T02:40:10.270Z,0.00
2019-06-07T02:41:10.191Z,0.00
2019-06-07T02:42:10.110Z,0.00
2019-06-07T02:43:10.029Z,0.00
2019-06-07T02:44:09.960Z,0.00
2019-06-07T02:45:10.730Z,0.00
2019-06-07T02:46:25.508Z,0.00
2019-06-07T02:47:09.733Z,0.00
2019-06-07T02:48:09.643Z,0.00
2019-06-07T02:49:09.569Z,0.00
2019-06-07T02:50:09.487Z,0.00
2019-06-07T02:51:09.411Z,0.00
2019-06-07T02:52:09.384Z,0.00
2019-06-07T02:53:09.259Z,0.00
2019-06-07T02:54:09.177Z,0.00
2019-06-07T02:55:09.099Z,0.00
2019-06-07T02:56:37.717Z,0.00
2019-06-07T02:57:08.947Z,0.00
2019-06-07T02:58:08.861Z,0.00
2019-06-07T02:59:08.783Z,0.00
2019-06-07T03:00:40.413Z,0.00
2019-06-07T03:01:09.691Z,0.00
2019-06-07T03:02:08.598Z,0.00
2019-06-07T03:03:08.473Z,0.00
2019-06-07T03:04:08.396Z,0.00
2019-06-07T03:05:08.317Z,0.00
2019-06-07T03:06:08.239Z,0.00
2019-06-07T03:07:08.163Z,0.00
2019-06-07T03:08:08.085Z,5.63
2019-06-07T03:09:08.006Z,5.63
2019-06-07T03:10:07.924Z,5.63
2019-06-07T03:11:07.850Z,5.63
2019-06-07T03:12:07.774Z,5.63
2019-06-07T03:13:07.694Z,5.63
2019-06-07T03:14:07.619Z,5.63
2019-06-07T03:15:07.535Z,5.63
2019-06-07T03:16:07.459Z,11.25
2019-06-07T03:17:07.384Z,11.25
2019-06-07T03:18:07.306Z,11.25
2019-06-07T03:19:07.227Z,11.25
2019-06-07T03:20:07.149Z,11.25
2019-06-07T03:21:07.067Z,11.25
2019-06-07T03:22:06.986Z,11.25
2019-06-07T03:23:06.910Z,16.88
2019-06-07T03:24:06.836Z,16.88
2019-06-07T03:25:06.759Z,16.88
2019-06-07T03:26:06.674Z,16.88
2019-06-07T03:28:06.520Z,16.88
2019-06-07T03:29:06.440Z,22.50
2019-06-07T03:30:36.191Z,22.50
2019-06-07T03:31:06.299Z,22.50
2019-06-07T03:32:06.208Z,22.50
2019-06-07T03:33:06.149Z,22.50
2019-06-07T03:34:06.050Z,28.13
2019-06-07T03:35:05.974Z,28.13
2019-06-07T03:36:22.651Z,28.13
2019-06-07T03:37:05.819Z,28.13
2019-06-07T03:38:05.742Z,28.13
2019-06-07T03:39:05.661Z,33.75
2019-06-07T03:40:05.583Z,33.75
2019-06-07T03:41:05.500Z,33.75
2019-06-07T03:42:08.230Z,33.75
2019-06-07T03:43:05.348Z,33.75
2019-06-07T03:44:05.299Z,33.75
2019-06-07T03:45:05.189Z,39.38
2019-06-07T03:46:05.109Z,39.38
2019-06-07T03:47:05.035Z,39.38
2019-06-07T03:48:04.957Z,39.38
2019-06-07T03:49:04.881Z,39.38
2019-06-07T03:50:04.800Z,45.00
2019-06-07T03:51:20.312Z,45.00
2019-06-07T03:52:04.643Z,45.00
2019-06-07T03:53:04.584Z,50.63
2019-06-07T03:54:04.492Z,50.63
2019-06-07T03:55:04.413Z,50.63
2019-06-07T03:56:04.351Z,50.63
2019-06-07T03:57:04.692Z,50.63
2019-06-07T03:59:04.099Z,56.25
2019-06-07T04:00:04.021Z,56.25
2019-06-07T04:01:03.946Z,61.88
2019-06-07T04:02:03.863Z,61.88
2019-06-07T04:03:03.786Z,61.88
2019-06-07T04:04:03.721Z,61.88
2019-06-07T04:05:03.630Z,61.88
2019-06-07T04:06:03.614Z,61.88
2019-06-07T04:07:03.475Z,61.88
2019-06-07T04:08:03.455Z,61.88
2019-06-07T04:09:03.324Z,67.50
2019-06-07T04:10:03.311Z,67.50
2019-06-07T04:11:03.165Z,67.50
2019-06-07T04:12:03.086Z,67.50
2019-06-07T04:13:03.010Z,67.50
2019-06-07T04:14:02.929Z,67.50
2019-06-07T04:15:02.851Z,67.50
2019-06-07T04:16:02.789Z,67.50
2019-06-07T04:17:02.710Z,67.50
2019-06-07T04:18:04.153Z,67.50
2019-06-07T04:19:02.541Z,67.50
2019-06-07T04:20:02.930Z,67.50
2019-06-07T04:21:02.389Z,67.50
2019-06-07T04:22:02.311Z,67.50
2019-06-07T04:23:02.232Z,61.88
2019-06-07T04:24:02.153Z,61.88
2019-06-07T04:25:02.088Z,61.88
2019-06-07T04:26:01.994Z,61.88
2019-06-07T04:27:01.920Z,61.88
2019-06-07T04:28:01.836Z,61.88
2019-06-07T04:29:32.481Z,67.50
2019-06-07T04:30:07.236Z,67.50
2019-06-07T04:31:01.607Z,67.50
2019-06-07T04:32:01.528Z,67.50
2019-06-07T04:33:01.460Z,67.50
2019-06-07T04:34:01.368Z,73.13
2019-06-07T04:35:01.292Z,78.75
2019-06-07T04:36:01.215Z,73.13
2019-06-07T04:37:01.145Z,73.13
2019-06-07T04:38:01.058Z,73.13
2019-06-07T04:39:00.982Z,73.13
2019-06-07T04:40:00.905Z,78.75
2019-06-07T04:41:00.847Z,78.75
2019-06-07T04:42:00.746Z,78.75
2019-06-07T04:43:00.671Z,84.38
2019-06-07T04:44:00.632Z,90.00
2019-06-07T04:45:00.677Z,95.63
2019-06-07T04:46:00.534Z,95.63
2019-06-07T04:47:00.380Z,95.63
2019-06-07T04:48:00.297Z,95.63
2019-06-07T04:49:00.242Z,101.25
2019-06-07T04:50:00.125Z,101.25
2019-06-07T04:51:00.044Z,101.25
2019-06-07T04:51:59.966Z,106.88
2019-06-07T04:52:59.898Z,106.88
2019-06-07T04:53:59.815Z,106.88
2019-06-07T04:54:59.732Z,112.50
2019-06-07T04:55:59.657Z,112.50
2019-06-07T04:56:59.576Z,118.13
2019-06-07T04:57:59.498Z,123.75
2019-06-07T04:58:59.427Z,123.75
2019-06-07T05:00:12.963Z,129.38
2019-06-07T05:01:03.494Z,129.38
2019-06-07T05:01:59.187Z,135.00
2019-06-07T05:02:59.109Z,135.00
2019-06-07T05:03:59.035Z,140.63
2019-06-07T05:04:58.956Z,140.63
2019-06-07T05:05:58.876Z,140.63
2019-06-07T05:06:58.808Z,140.63
2019-06-07T05:08:07.233Z,146.25
2019-06-07T05:08:58.684Z,146.25
2019-06-07T05:09:58.565Z,146.25
2019-06-07T05:10:58.490Z,140.63
2019-06-07T05:11:58.412Z,146.25
2019-06-07T05:12:58.415Z,146.25
2019-06-07T05:13:58.386Z,140.63
2019-06-07T05:14:58.228Z,140.63
2019-06-07T05:15:58.101Z,140.63
2019-06-07T05:16:58.056Z,135.00
2019-06-07T05:17:57.974Z,135.00
2019-06-07T05:18:57.889Z,135.00
2019-06-07T05:19:57.856Z,135.00
2019-06-07T05:20:57.715Z,129.38
2019-06-07T05:22:04.411Z,123.75
2019-06-07T05:22:57.559Z,123.75
2019-06-07T05:24:07.513Z,118.13
2019-06-07T05:24:57.412Z,118.13
2019-06-07T05:25:57.332Z,118.13
2019-06-07T05:26:57.273Z,118.13
2019-06-07T05:27:57.176Z,118.13
2019-06-07T05:28:57.091Z,118.13
2019-06-07T05:30:13.346Z,123.75
2019-06-07T05:31:04.511Z,123.75
2019-06-07T05:31:56.872Z,123.75
2019-06-07T05:32:56.783Z,123.75
2019-06-07T05:33:56.729Z,123.75
2019-06-07T05:34:56.633Z,123.75
2019-06-07T05:35:56.556Z,123.75
2019-06-07T05:37:11.077Z,123.75
2019-06-07T05:37:56.406Z,123.75
2019-06-07T05:38:56.317Z,123.75
2019-06-07T05:39:56.260Z,123.75
2019-06-07T05:40:56.165Z,129.38
2019-06-07T05:41:56.090Z,129.38
2019-06-07T05:42:56.011Z,129.38
2019-06-07T05:44:12.227Z,129.38
2019-06-07T05:44:55.862Z,123.75
2019-06-07T05:45:55.795Z,123.75
2019-06-07T05:46:55.702Z,129.38
2019-06-07T05:47:55.644Z,129.38
2019-06-07T05:48:55.550Z,129.38
2019-06-07T05:49:55.480Z,129.38
2019-06-07T05:50:57.339Z,129.38
2019-06-07T05:51:55.316Z,129.38
2019-06-07T05:52:55.266Z,129.38
2019-06-07T05:53:55.159Z,129.38
2019-06-07T05:54:55.082Z,129.38
2019-06-07T05:55:55.009Z,129.38
2019-06-07T05:56:54.927Z,129.38
2019-06-07T05:57:54.860Z,129.38
2019-06-07T05:58:54.777Z,129.38
2019-06-07T05:59:54.699Z,129.38
2019-06-07T06:00:54.619Z,129.38
2019-06-07T06:02:02.648Z,129.38
2019-06-07T06:03:04.962Z,129.38
2019-06-07T06:03:54.389Z,129.38
2019-06-07T06:04:54.306Z,129.38
2019-06-07T06:05:55.530Z,129.38
2019-06-07T06:06:54.154Z,129.38
2019-06-07T06:07:54.079Z,129.38
2019-06-07T06:09:11.518Z,129.38
2019-06-07T06:09:53.926Z,129.38
2019-06-07T06:10:53.857Z,129.38
2019-06-07T06:12:01.772Z,129.38
2019-06-07T06:12:53.688Z,129.38
2019-06-07T06:14:06.447Z,129.38
2019-06-07T06:14:53.538Z,129.38
2019-06-07T06:16:01.079Z,129.38
2019-06-07T06:16:53.386Z,135.00
2019-06-07T06:17:54.126Z,135.00
2019-06-07T06:18:53.225Z,135.00
2019-06-07T06:19:53.649Z,135.00
2019-06-07T06:21:15.662Z,135.00
2019-06-07T06:21:53.000Z,135.00
2019-06-07T06:22:52.924Z,135.00
2019-06-07T06:23:54.041Z,135.00
2019-06-07T06:25:30.077Z,135.00
2019-06-07T06:25:56.627Z,135.00
2019-06-07T06:27:00.272Z,135.00
2019-06-07T06:28:12.434Z,135.00
2019-06-07T06:28:52.456Z,135.00
2019-06-07T06:29:52.560Z,135.00
2019-06-07T06:30:52.319Z,135.00
2019-06-07T06:32:39.791Z,135.00
2019-06-07T06:32:57.798Z,135.00
2019-06-07T06:33:52.077Z,135.00
2019-06-07T06:34:54.027Z,135.00
2019-06-07T06:35:51.923Z,135.00
2019-06-07T06:36:51.853Z,135.00
2019-06-07T06:37:53.181Z,135.00
2019-06-07T06:38:51.739Z,135.00
2019-06-07T06:39:51.617Z,135.00
2019-06-07T06:41:11.752Z,135.00
2019-06-07T06:42:01.664Z,135.00
2019-06-07T06:42:51.385Z,140.63
2019-06-07T06:43:52.654Z,140.63
2019-06-07T06:44:53.966Z,140.63
2019-06-07T06:45:51.162Z,140.63
2019-06-07T06:46:57.456Z,140.63
2019-06-07T06:47:51.042Z,140.63
2019-06-07T06:48:54.966Z,140.63
2019-06-07T06:49:54.253Z,140.63
2019-06-07T06:50:52.584Z,140.63
2019-06-07T06:51:53.421Z,140.63
2019-06-07T06:52:54.395Z,140.63
2019-06-07T06:53:52.501Z,140.63
2019-06-07T06:54:59.367Z,140.63
2019-06-07T06:55:51.421Z,140.63
2019-06-07T06:56:52.612Z,140.63
2019-06-07T06:57:51.370Z,140.63
2019-06-07T06:59:32.688Z,140.63
2019-06-07T06:59:52.514Z,140.63
2019-06-07T07:01:04.926Z,140.63
2019-06-07T07:01:52.453Z,140.63
2019-06-07T07:03:40.738Z,140.63
2019-06-07T07:04:09.165Z,140.63
2019-06-07T07:04:53.490Z,140.63
2019-06-07T07:05:53.310Z,140.63
2019-06-07T07:06:50.632Z,140.63
2019-06-07T07:07:51.621Z,140.63
2019-06-07T07:08:51.404Z,140.63
2019-06-07T07:09:55.311Z,140.63
2019-06-07T07:10:52.649Z,140.63
2019-06-07T07:12:00.779Z,140.63
2019-06-07T07:12:51.213Z,140.63
2019-06-07T07:13:53.238Z,146.25
2019-06-07T07:14:50.284Z,146.25
2019-06-07T07:15:55.215Z,146.25
2019-06-07T07:16:53.546Z,146.25
2019-06-07T07:18:00.695Z,146.25
2019-06-07T07:18:51.706Z,146.25
2019-06-07T07:19:50.427Z,151.88
2019-06-07T07:20:53.385Z,146.25
2019-06-07T07:21:51.433Z,146.25
2019-06-07T07:22:51.490Z,146.25
2019-06-07T07:24:14.544Z,146.25
2019-06-07T07:24:51.836Z,146.25
2019-06-07T07:25:55.396Z,146.25
2019-06-07T07:26:50.434Z,146.25
2019-06-07T07:27:52.096Z,146.25
2019-06-07T07:28:54.030Z,146.25
2019-06-07T07:29:52.617Z,146.25
2019-06-07T07:30:49.982Z,146.25
2019-06-07T07:31:51.744Z,151.88
2019-06-07T07:32:48.959Z,151.88
2019-06-07T07:34:50.061Z,151.88
2019-06-07T07:36:11.070Z,151.88
2019-06-07T07:36:48.281Z,151.88
2019-06-07T07:37:53.567Z,151.88
2019-06-07T07:38:51.744Z,151.88
2019-06-07T07:39:50.478Z,151.88
2019-06-07T07:41:14.128Z,151.88
2019-06-07T07:42:12.333Z,151.88
2019-06-07T07:42:47.549Z,157.50
2019-06-07T07:43:52.894Z,157.50
2019-06-07T07:44:49.045Z,157.50
2019-06-07T07:45:51.075Z,157.50
2019-06-07T07:46:46.650Z,157.50
2019-06-07T07:48:01.994Z,157.50
2019-06-07T07:48:46.343Z,157.50
2019-06-07T07:49:48.374Z,157.50
2019-06-07T07:50:49.670Z,157.50
2019-06-07T07:51:46.426Z,157.50
2019-06-07T07:52:49.064Z,157.50
2019-06-07T07:53:56.117Z,157.50
2019-06-07T07:54:57.850Z,157.50
2019-06-07T07:56:51.693Z,157.50
2019-06-07T07:57:56.788Z,157.50
2019-06-07T07:58:54.595Z,163.13
2019-06-07T08:00:08.380Z,163.13
2019-06-07T08:00:54.887Z,163.13
2019-06-07T08:01:53.852Z,163.13
2019-06-07T08:02:52.974Z,163.13
2019-06-07T08:03:50.706Z,163.13
2019-06-07T08:05:51.310Z,163.13
2019-06-07T08:06:51.564Z,163.13
2019-06-07T08:07:53.455Z,163.13
2019-06-07T08:08:51.189Z,168.75
2019-06-07T08:09:51.428Z,168.75
2019-06-07T08:10:54.965Z,168.75
2019-06-07T08:11:51.536Z,168.75
2019-06-07T08:13:11.802Z,168.75
2019-06-07T08:13:50.522Z,168.75
2019-06-07T08:14:51.100Z,168.75
2019-06-07T08:15:54.487Z,168.75
2019-06-07T08:16:49.358Z,168.75
2019-06-07T08:17:51.442Z,168.75
2019-06-07T08:18:51.529Z,168.75
2019-06-07T08:19:49.952Z,168.75
2019-06-07T08:21:10.960Z,168.75
2019-06-07T08:21:49.002Z,168.75
2019-06-07T08:22:49.904Z,168.75
2019-06-07T08:23:51.621Z,168.75
2019-06-07T08:24:51.359Z,168.75
2019-06-07T08:25:49.159Z,174.38
2019-06-07T08:27:12.514Z,174.38
2019-06-07T08:27:49.399Z,174.38
2019-06-07T08:28:48.426Z,174.38
2019-06-07T08:30:03.620Z,174.38
2019-06-07T08:30:52.336Z,174.38
2019-06-07T08:31:48.310Z,180.00
2019-06-07T08:32:51.511Z,180.00
2019-06-07T08:33:47.803Z,180.00
2019-06-07T08:34:49.842Z,180.00
2019-06-07T08:36:48.035Z,185.63
2019-06-07T08:38:50.920Z,185.63
2019-06-07T08:39:46.936Z,185.63
2019-06-07T08:40:46.849Z,185.63
2019-06-07T08:42:00.120Z,185.63
2019-06-07T08:43:02.812Z,185.63
2019-06-07T08:43:46.620Z,191.25
2019-06-07T08:44:46.547Z,191.25
2019-06-07T08:45:46.469Z,191.25
2019-06-07T08:46:46.397Z,191.25
2019-06-07T08:47:46.317Z,191.25
2019-06-07T08:48:46.263Z,191.25
2019-06-07T08:49:46.168Z,196.88
2019-06-07T08:50:46.091Z,196.88
2019-06-07T08:51:46.015Z,196.88
2019-06-07T08:52:45.963Z,196.88
2019-06-07T08:54:02.687Z,202.50
2019-06-07T08:54:45.784Z,196.88
2019-06-07T08:55:45.709Z,202.50
2019-06-07T08:56:45.638Z,202.50
2019-06-07T08:57:45.574Z,202.50
2019-06-07T08:58:45.493Z,202.50
2019-06-07T08:59:45.432Z,202.50
2019-06-07T09:00:47.569Z,208.13
2019-06-07T09:01:45.259Z,208.13
2019-06-07T09:02:45.184Z,208.13
2019-06-07T09:03:45.107Z,202.50
2019-06-07T09:04:45.034Z,208.13
2019-06-07T09:05:44.960Z,208.13
2019-06-07T09:07:44.801Z,213.75
2019-06-07T09:08:44.727Z,213.75
2019-06-07T09:09:44.651Z,213.75
2019-06-07T09:10:44.577Z,213.75
2019-06-07T09:11:44.511Z,208.13
2019-06-07T09:12:44.432Z,208.13
2019-06-07T09:13:44.355Z,208.13
2019-06-07T09:14:59.874Z,213.75
2019-06-07T09:15:44.206Z,213.75
2019-06-07T09:16:44.127Z,213.75
2019-06-07T09:18:30.574Z,213.75
2019-06-07T09:18:45.133Z,213.75
2019-06-07T09:19:43.904Z,213.75
2019-06-07T09:20:43.827Z,219.38
2019-06-07T09:21:43.752Z,219.38
2019-06-07T09:22:43.676Z,225.00
2019-06-07T09:23:43.618Z,225.00
2019-06-07T09:24:43.528Z,230.63
2019-06-07T09:25:56.411Z,219.38
2019-06-07T09:26:43.403Z,225.00
2019-06-07T09:27:43.301Z,225.00
2019-06-07T09:28:43.252Z,225.00
2019-06-07T09:29:43.147Z,230.63
2019-06-07T09:30:43.075Z,236.25
2019-06-07T09:31:52.884Z,236.25
2019-06-07T09:32:42.924Z,236.25
2019-06-07T09:33:42.853Z,230.63
2019-06-07T09:34:42.776Z,236.25
2019-06-07T09:35:42.701Z,236.25
2019-06-07T09:36:42.627Z,230.63
2019-06-07T09:38:42.475Z,236.25
2019-06-07T09:39:42.403Z,236.25
2019-06-07T09:40:42.333Z,236.25
2019-06-07T09:41:49.232Z,241.88
2019-06-07T09:42:42.187Z,241.88
2019-06-07T09:44:42.027Z,247.50
2019-06-07T09:45:41.953Z,247.50
2019-06-07T09:46:41.875Z,247.50
2019-06-07T09:47:41.803Z,247.50
2019-06-07T09:49:10.555Z,258.75
2019-06-07T09:49:41.653Z,253.13
2019-06-07T09:50:41.670Z,258.75
2019-06-07T09:51:41.505Z,253.13
2019-06-07T09:52:57.817Z,258.75
2019-06-07T09:53:41.359Z,253.13
2019-06-07T09:55:41.204Z,258.75
2019-06-07T09:56:41.135Z,258.75
2019-06-07T09:57:41.055Z,258.75
2019-06-07T09:58:52.110Z,258.75
2019-06-07T09:59:40.907Z,258.75
2019-06-07T10:00:42.673Z,264.38
2019-06-07T10:01:40.761Z,264.38
2019-06-07T10:02:40.705Z,264.38
2019-06-07T10:03:40.620Z,270.00
2019-06-07T10:04:40.538Z,270.00
2019-06-07T10:05:40.465Z,275.63
2019-06-07T10:06:40.387Z,275.63
2019-06-07T10:07:59.315Z,281.25
2019-06-07T10:09:57.192Z,281.25
2019-06-07T10:10:09.827Z,281.25
2019-06-07T10:10:42.812Z,281.25
2019-06-07T10:11:40.015Z,281.25
2019-06-07T10:12:39.955Z,275.63
2019-06-07T10:13:39.866Z,275.63
2019-06-07T10:14:39.794Z,281.25
2019-06-07T10:15:39.719Z,281.25
2019-06-07T10:16:48.020Z,281.25
2019-06-07T10:17:39.578Z,281.25
2019-06-07T10:18:39.497Z,281.25
2019-06-07T10:19:39.424Z,281.25
2019-06-07T10:20:39.352Z,281.25
2019-06-07T10:21:39.278Z,286.88
2019-06-07T10:22:39.200Z,286.88
2019-06-07T10:23:39.126Z,286.88
2019-06-07T10:24:39.053Z,286.88
2019-06-07T10:25:38.978Z,292.50
2019-06-07T10:26:38.928Z,286.88
2019-06-07T10:27:38.830Z,286.88
2019-06-07T10:28:38.758Z,292.50
2019-06-07T10:29:38.685Z,292.50
2019-06-07T10:30:38.607Z,292.50
2019-06-07T10:31:38.586Z,298.13
2019-06-07T10:32:38.462Z,298.13
2019-06-07T10:33:38.389Z,298.13
2019-06-07T10:34:38.313Z,303.75
2019-06-07T10:35:38.242Z,309.38
2019-06-07T10:36:38.181Z,309.38
2019-06-07T10:37:38.093Z,315.00
2019-06-07T10:38:38.023Z,320.63
2019-06-07T10:39:48.168Z,326.25
2019-06-07T10:40:37.872Z,337.50
2019-06-07T10:41:37.801Z,343.13
2019-06-07T10:42:37.724Z,343.13
2019-06-07T10:43:37.676Z,343.13
2019-06-07T10:44:37.584Z,348.75
2019-06-07T10:45:37.503Z,348.75
2019-06-07T10:46:37.431Z,354.38
2019-06-07T10:47:37.361Z,360.00
2019-06-07T10:48:37.285Z,360.00
2019-06-07T10:49:37.216Z,365.63
2019-06-07T10:50:37.147Z,371.25
2019-06-07T10:51:37.066Z,371.25
2019-06-07T10:52:36.995Z,365.63
2019-06-07T10:53:36.919Z,365.63
2019-06-07T10:54:36.843Z,365.63
2019-06-07T10:55:36.781Z,371.25
2019-06-07T10:56:36.715Z,371.25
2019-06-07T10:57:36.626Z,376.88
2019-06-07T10:58:36.552Z,388.13
2019-06-07T10:59:36.480Z,382.50
2019-06-07T11:00:36.403Z,382.50
2019-06-07T11:01:36.333Z,382.50
2019-06-07T11:02:36.261Z,388.13
2019-06-07T11:03:36.188Z,393.75
2019-06-07T11:04:36.114Z,393.75
2019-06-07T11:05:36.042Z,399.38
2019-06-07T11:06:35.973Z,405.00
2019-06-07T11:07:35.897Z,405.00
2019-06-07T11:08:35.825Z,410.63
2019-06-07T11:09:35.747Z,416.25
2019-06-07T11:10:35.673Z,416.25
2019-06-07T11:11:35.606Z,416.25
2019-06-07T11:12:35.542Z,427.50
2019-06-07T11:13:35.462Z,427.50
2019-06-07T11:14:35.388Z,427.50
2019-06-07T11:15:35.317Z,427.50
2019-06-07T11:16:35.280Z,427.50
2019-06-07T11:17:35.173Z,433.13
2019-06-07T11:18:35.095Z,438.75
2019-06-07T11:19:35.027Z,450.00
2019-06-07T11:20:34.951Z,455.63
2019-06-07T11:21:34.889Z,444.38
2019-06-07T11:22:34.812Z,444.38
2019-06-07T11:23:34.737Z,450.00
2019-06-07T11:24:34.670Z,461.25
2019-06-07T11:25:34.596Z,461.25
2019-06-07T11:26:34.522Z,461.25
2019-06-07T11:27:34.447Z,466.88
2019-06-07T11:28:34.375Z,466.88
2019-06-07T11:29:34.303Z,478.13
2019-06-07T11:30:34.236Z,478.13
2019-06-07T11:31:34.160Z,489.38
2019-06-07T11:32:34.092Z,495.00
2019-06-07T11:33:34.016Z,495.00
2019-06-07T11:34:33.945Z,489.38
2019-06-07T11:35:33.871Z,489.38
2019-06-07T11:36:33.800Z,495.00
2019-06-07T11:37:33.729Z,500.63
2019-06-07T11:38:33.654Z,511.88
2019-06-07T11:39:33.582Z,511.88
2019-06-07T11:40:35.913Z,517.50
2019-06-07T11:41:33.442Z,523.13
2019-06-07T11:42:33.369Z,528.75
2019-06-07T11:43:33.331Z,534.38
2019-06-07T11:44:33.227Z,534.38
2019-06-07T11:45:33.157Z,545.63
2019-06-07T11:46:33.089Z,545.63
2019-06-07T11:47:33.050Z,551.25
2019-06-07T11:48:32.941Z,556.88
2019-06-07T11:49:32.874Z,573.75
2019-06-07T11:50:32.799Z,601.88
2019-06-07T11:51:32.730Z,579.38
2019-06-07T11:52:32.660Z,573.75
2019-06-07T11:53:32.584Z,579.38
2019-06-07T11:54:32.518Z,579.38
2019-06-07T11:55:32.444Z,590.63
2019-06-07T11:56:32.375Z,590.63
2019-06-07T11:57:32.326Z,596.25
2019-06-07T11:58:32.242Z,601.88
2019-06-07T11:59:32.158Z,607.50
2019-06-07T12:00:34.307Z,601.88
2019-06-07T12:01:32.015Z,607.50
2019-06-07T12:02:31.983Z,618.75
2019-06-07T12:03:31.887Z,630.00
2019-06-07T12:04:34.956Z,630.00
2019-06-07T12:05:31.730Z,641.25
2019-06-07T12:06:31.663Z,641.25
2019-06-07T12:07:31.593Z,652.50
2019-06-07T12:08:31.535Z,658.13
2019-06-07T12:09:31.452Z,675.00
2019-06-07T12:10:42.202Z,804.38
2019-06-07T12:11:31.314Z,2593.13
2019-06-07T12:12:31.242Z,4905.00
2019-06-07T12:13:31.173Z,6738.75
2019-06-07T12:14:31.104Z,6930.00
2019-06-07T12:15:31.043Z,6120.00
2019-06-07T12:16:30.974Z,5197.50
2019-06-07T12:17:30.899Z,5518.13
2019-06-07T12:18:30.867Z,6525.00
2019-06-07T12:19:30.794Z,6856.88
2019-06-07T12:20:30.728Z,6772.50
2019-06-07T12:21:30.639Z,6806.25
2019-06-07T12:22:30.576Z,6648.75
2019-06-07T12:23:30.511Z,6671.25
2019-06-07T12:24:30.450Z,6823.13
2019-06-07T12:25:30.400Z,7104.38
2019-06-07T12:26:30.322Z,7059.38
2019-06-07T12:27:30.261Z,6851.25
2019-06-07T12:28:30.202Z,6671.25
2019-06-07T12:29:30.145Z,6474.38
2019-06-07T12:30:30.087Z,6215.63
2019-06-07T12:31:30.021Z,6080.63
2019-06-07T12:32:29.963Z,6176.25
2019-06-07T12:33:29.902Z,6474.38
2019-06-07T12:34:29.844Z,6423.75
2019-06-07T12:35:29.785Z,6198.75
2019-06-07T12:36:29.744Z,6311.25
2019-06-07T12:37:43.108Z,6755.63
2019-06-07T12:38:29.612Z,7323.75
2019-06-07T12:39:29.556Z,7453.13
2019-06-07T12:40:32.240Z,7515.00
2019-06-07T12:41:29.444Z,7576.88
2019-06-07T12:42:29.392Z,7531.88
2019-06-07T12:43:29.333Z,6952.50
2019-06-07T12:44:29.280Z,6435.00
2019-06-07T12:45:45.455Z,6255.00
2019-06-07T12:46:29.167Z,6350.63
2019-06-07T12:47:29.189Z,6491.25
2019-06-07T12:48:29.052Z,6817.50
2019-06-07T12:49:29.000Z,7363.13
2019-06-07T12:50:42.599Z,7711.88
2019-06-07T12:51:28.884Z,7700.63
2019-06-07T12:52:28.849Z,7509.38
2019-06-07T12:53:28.776Z,7481.25
2019-06-07T12:54:28.727Z,7447.50
2019-06-07T12:55:28.668Z,7261.88
2019-06-07T12:56:28.607Z,7380.00